Terminal Aerodrome Forecast
Issued by NWS

Current Version | Previous Version | Text Only | Print | Product List | Glossary On
Versions: 1 2 3 4 5 6 7 8 9 10 11
000
FTUS45 KTFX 130539
TAFBZN
TAF
KBZN 130539Z 1306/1412 VRB03KT P6SM BKN100
     FM130800 VRB03KT P6SM SKC
     FM131200 VRB03KT P6SM OVC100
      TEMPO 1316/1320 5SM -SHSN BKN060 OVC090
     FM132000 VRB05KT 4SM -SN BKN015 OVC035
     FM140800 00000KT P6SM SCT025 BKN070=

USA.gov is the U.S. government's official web portal to all federal, state and local government web resources and services.